sensor_id;sensor_type;location;lat;lon;timestamp;P1;durP1;ratioP1;P2;durP2;ratioP2
58294;SDS011;45705;55.592;37.460;2023-11-19T00:01:41;29.35;;;15.82;;
58294;SDS011;45705;55.592;37.460;2023-11-19T00:04:06;30.73;;;16.42;;
58294;SDS011;45705;55.592;37.460;2023-11-19T00:06:33;34.38;;;16.02;;
58294;SDS011;45705;55.592;37.460;2023-11-19T00:08:59;28.90;;;15.70;;
58294;SDS011;45705;55.592;37.460;2023-11-19T00:11:25;26.20;;;15.43;;
58294;SDS011;45705;55.592;37.460;2023-11-19T00:13:51;32.38;;;15.45;;
58294;SDS011;45705;55.592;37.460;2023-11-19T00:16:17;28.83;;;13.90;;
58294;SDS011;45705;55.592;37.460;2023-11-19T00:18:42;29.42;;;13.82;;
58294;SDS011;45705;55.592;37.460;2023-11-19T00:21:08;28.20;;;13.75;;
58294;SDS011;45705;55.592;37.460;2023-11-19T00:23:35;24.33;;;14.07;;
58294;SDS011;45705;55.592;37.460;2023-11-19T00:26:01;25.40;;;13.43;;
58294;SDS011;45705;55.592;37.460;2023-11-19T00:28:27;31.08;;;13.68;;
58294;SDS011;45705;55.592;37.460;2023-11-19T00:30:54;24.27;;;13.48;;
58294;SDS011;45705;55.592;37.460;2023-11-19T00:33:21;30.90;;;14.43;;
58294;SDS011;45705;55.592;37.460;2023-11-19T00:35:46;28.92;;;14.07;;
58294;SDS011;45705;55.592;37.460;2023-11-19T00:38:12;25.58;;;12.80;;
58294;SDS011;45705;55.592;37.460;2023-11-19T00:40:38;25.98;;;14.65;;
58294;SDS011;45705;55.592;37.460;2023-11-19T00:43:04;27.25;;;12.95;;
58294;SDS011;45705;55.592;37.460;2023-11-19T00:45:29;27.98;;;13.63;;
58294;SDS011;45705;55.592;37.460;2023-11-19T00:47:55;25.63;;;14.07;;
58294;SDS011;45705;55.592;37.460;2023-11-19T00:50:21;27.48;;;14.10;;
58294;SDS011;45705;55.592;37.460;2023-11-19T00:52:48;25.98;;;12.88;;
58294;SDS011;45705;55.592;37.460;2023-11-19T00:55:14;25.98;;;13.10;;
58294;SDS011;45705;55.592;37.460;2023-11-19T00:57:40;20.95;;;12.68;;
58294;SDS011;45705;55.592;37.460;2023-11-19T01:00:08;28.20;;;13.80;;
58294;SDS011;45705;55.592;37.460;2023-11-19T01:02:44;26.48;;;14.65;;
58294;SDS011;45705;55.592;37.460;2023-11-19T01:05:11;32.00;;;14.70;;
58294;SDS011;45705;55.592;37.460;2023-11-19T01:07:39;30.08;;;13.75;;
58294;SDS011;45705;55.592;37.460;2023-11-19T01:10:05;22.67;;;13.05;;
58294;SDS011;45705;55.592;37.460;2023-11-19T01:12:33;25.67;;;13.73;;
58294;SDS011;45705;55.592;37.460;2023-11-19T01:14:59;28.45;;;14.27;;
58294;SDS011;45705;55.592;37.460;2023-11-19T01:17:29;25.98;;;13.43;;
58294;SDS011;45705;55.592;37.460;2023-11-19T01:19:57;28.58;;;14.45;;
58294;SDS011;45705;55.592;37.460;2023-11-19T01:22:22;29.27;;;15.07;;
58294;SDS011;45705;55.592;37.460;2023-11-19T01:24:48;25.58;;;14.45;;
58294;SDS011;45705;55.592;37.460;2023-11-19T01:27:15;27.83;;;15.15;;
58294;SDS011;45705;55.592;37.460;2023-11-19T01:29:41;25.23;;;14.50;;
58294;SDS011;45705;55.592;37.460;2023-11-19T01:32:08;25.55;;;14.38;;
58294;SDS011;45705;55.592;37.460;2023-11-19T01:34:34;25.25;;;14.27;;
58294;SDS011;45705;55.592;37.460;2023-11-19T01:37:01;25.63;;;13.02;;
58294;SDS011;45705;55.592;37.460;2023-11-19T01:39:27;24.08;;;13.75;;
58294;SDS011;45705;55.592;37.460;2023-11-19T01:41:53;26.35;;;14.05;;
58294;SDS011;45705;55.592;37.460;2023-11-19T01:44:19;23.75;;;13.23;;
58294;SDS011;45705;55.592;37.460;2023-11-19T01:46:45;27.50;;;14.55;;
58294;SDS011;45705;55.592;37.460;2023-11-19T01:49:14;24.88;;;13.40;;
58294;SDS011;45705;55.592;37.460;2023-11-19T01:51:41;27.00;;;13.98;;
58294;SDS011;45705;55.592;37.460;2023-11-19T01:54:08;28.67;;;14.23;;
58294;SDS011;45705;55.592;37.460;2023-11-19T01:56:34;25.50;;;13.20;;
58294;SDS011;45705;55.592;37.460;2023-11-19T01:59:02;27.05;;;13.43;;
58294;SDS011;45705;55.592;37.460;2023-11-19T02:01:28;27.02;;;13.65;;
58294;SDS011;45705;55.592;37.460;2023-11-19T02:03:55;25.10;;;14.27;;
58294;SDS011;45705;55.592;37.460;2023-11-19T02:06:21;22.67;;;13.88;;
58294;SDS011;45705;55.592;37.460;2023-11-19T02:08:47;34.20;;;14.95;;
58294;SDS011;45705;55.592;37.460;2023-11-19T02:11:12;33.42;;;14.00;;
58294;SDS011;45705;55.592;37.460;2023-11-19T02:13:39;32.30;;;15.20;;
58294;SDS011;45705;55.592;37.460;2023-11-19T02:16:06;32.65;;;14.20;;
58294;SDS011;45705;55.592;37.460;2023-11-19T02:18:35;31.20;;;15.73;;
58294;SDS011;45705;55.592;37.460;2023-11-19T02:21:00;26.83;;;15.02;;
58294;SDS011;45705;55.592;37.460;2023-11-19T02:23:27;27.80;;;14.95;;
58294;SDS011;45705;55.592;37.460;2023-11-19T02:28:50;32.65;;;15.07;;
58294;SDS011;45705;55.592;37.460;2023-11-19T02:31:16;32.80;;;14.25;;
58294;SDS011;45705;55.592;37.460;2023-11-19T02:33:41;24.42;;;14.57;;
58294;SDS011;45705;55.592;37.460;2023-11-19T02:36:07;34.20;;;15.18;;
58294;SDS011;45705;55.592;37.460;2023-11-19T02:38:34;30.23;;;14.85;;
58294;SDS011;45705;55.592;37.460;2023-11-19T02:41:03;29.58;;;14.23;;
58294;SDS011;45705;55.592;37.460;2023-11-19T02:43:33;26.52;;;13.98;;
58294;SDS011;45705;55.592;37.460;2023-11-19T02:46:02;26.98;;;14.63;;
58294;SDS011;45705;55.592;37.460;2023-11-19T02:48:32;25.52;;;14.00;;
58294;SDS011;45705;55.592;37.460;2023-11-19T02:51:01;28.45;;;14.70;;
58294;SDS011;45705;55.592;37.460;2023-11-19T02:53:29;33.50;;;14.80;;
58294;SDS011;45705;55.592;37.460;2023-11-19T02:55:55;25.25;;;14.07;;
58294;SDS011;45705;55.592;37.460;2023-11-19T02:58:27;27.00;;;15.48;;
58294;SDS011;45705;55.592;37.460;2023-11-19T03:00:54;27.27;;;14.32;;
58294;SDS011;45705;55.592;37.460;2023-11-19T03:03:25;29.20;;;14.95;;
58294;SDS011;45705;55.592;37.460;2023-11-19T03:06:06;32.63;;;15.18;;
58294;SDS011;45705;55.592;37.460;2023-11-19T03:08:35;34.95;;;14.80;;
58294;SDS011;45705;55.592;37.460;2023-11-19T03:11:01;28.13;;;15.02;;
58294;SDS011;45705;55.592;37.460;2023-11-19T03:13:27;31.52;;;15.57;;
58294;SDS011;45705;55.592;37.460;2023-11-19T03:15:53;27.42;;;15.63;;
58294;SDS011;45705;55.592;37.460;2023-11-19T03:18:19;33.67;;;16.60;;
58294;SDS011;45705;55.592;37.460;2023-11-19T03:20:46;32.38;;;16.65;;
58294;SDS011;45705;55.592;37.460;2023-11-19T03:23:13;33.63;;;17.70;;
58294;SDS011;45705;55.592;37.460;2023-11-19T03:25:39;31.60;;;17.02;;
58294;SDS011;45705;55.592;37.460;2023-11-19T03:28:04;34.70;;;17.80;;
58294;SDS011;45705;55.592;37.460;2023-11-19T03:30:32;33.03;;;17.70;;
58294;SDS011;45705;55.592;37.460;2023-11-19T03:32:58;32.92;;;17.13;;
58294;SDS011;45705;55.592;37.460;2023-11-19T03:35:25;38.75;;;17.92;;
58294;SDS011;45705;55.592;37.460;2023-11-19T03:37:51;38.22;;;18.20;;
58294;SDS011;45705;55.592;37.460;2023-11-19T03:40:17;37.15;;;17.67;;
58294;SDS011;45705;55.592;37.460;2023-11-19T03:42:46;44.03;;;18.52;;
58294;SDS011;45705;55.592;37.460;2023-11-19T03:45:11;42.13;;;18.67;;
58294;SDS011;45705;55.592;37.460;2023-11-19T03:47:37;37.10;;;19.10;;
58294;SDS011;45705;55.592;37.460;2023-11-19T03:50:04;37.75;;;18.73;;
58294;SDS011;45705;55.592;37.460;2023-11-19T03:52:31;40.78;;;19.15;;
58294;SDS011;45705;55.592;37.460;2023-11-19T03:54:56;34.00;;;19.05;;
58294;SDS011;45705;55.592;37.460;2023-11-19T03:57:23;39.45;;;19.33;;
58294;SDS011;45705;55.592;37.460;2023-11-19T03:59:49;39.92;;;19.45;;
58294;SDS011;45705;55.592;37.460;2023-11-19T04:02:15;36.65;;;19.38;;
58294;SDS011;45705;55.592;37.460;2023-11-19T04:04:41;32.17;;;18.02;;
58294;SDS011;45705;55.592;37.460;2023-11-19T04:07:07;36.05;;;18.40;;
58294;SDS011;45705;55.592;37.460;2023-11-19T04:09:33;36.65;;;17.70;;
58294;SDS011;45705;55.592;37.460;2023-11-19T04:12:00;37.83;;;19.27;;
58294;SDS011;45705;55.592;37.460;2023-11-19T04:14:26;37.38;;;18.00;;
58294;SDS011;45705;55.592;37.460;2023-11-19T04:16:52;38.83;;;18.02;;
58294;SDS011;45705;55.592;37.460;2023-11-19T04:19:19;35.83;;;17.60;;
58294;SDS011;45705;55.592;37.460;2023-11-19T04:21:45;36.55;;;18.83;;
58294;SDS011;45705;55.592;37.460;2023-11-19T04:24:12;37.53;;;19.15;;
58294;SDS011;45705;55.592;37.460;2023-11-19T04:26:41;39.10;;;18.20;;
58294;SDS011;45705;55.592;37.460;2023-11-19T04:29:13;36.10;;;18.63;;
58294;SDS011;45705;55.592;37.460;2023-11-19T04:31:40;32.33;;;17.25;;
58294;SDS011;45705;55.592;37.460;2023-11-19T04:34:07;40.70;;;18.10;;
58294;SDS011;45705;55.592;37.460;2023-11-19T04:36:33;31.60;;;17.45;;
58294;SDS011;45705;55.592;37.460;2023-11-19T04:39:00;39.58;;;19.30;;
58294;SDS011;45705;55.592;37.460;2023-11-19T04:41:27;38.00;;;18.90;;
58294;SDS011;45705;55.592;37.460;2023-11-19T04:43:53;36.67;;;17.98;;
58294;SDS011;45705;55.592;37.460;2023-11-19T04:46:20;43.10;;;19.55;;
58294;SDS011;45705;55.592;37.460;2023-11-19T04:48:46;43.78;;;20.17;;
58294;SDS011;45705;55.592;37.460;2023-11-19T04:51:11;35.10;;;18.90;;
58294;SDS011;45705;55.592;37.460;2023-11-19T04:53:37;37.92;;;19.08;;
58294;SDS011;45705;55.592;37.460;2023-11-19T04:56:10;47.75;;;20.58;;
58294;SDS011;45705;55.592;37.460;2023-11-19T04:58:36;39.97;;;19.27;;
58294;SDS011;45705;55.592;37.460;2023-11-19T05:01:03;42.17;;;20.88;;
58294;SDS011;45705;55.592;37.460;2023-11-19T05:03:30;40.17;;;21.10;;
58294;SDS011;45705;55.592;37.460;2023-11-19T05:05:57;41.90;;;21.23;;
58294;SDS011;45705;55.592;37.460;2023-11-19T05:08:24;46.75;;;22.05;;
58294;SDS011;45705;55.592;37.460;2023-11-19T05:10:49;43.95;;;22.17;;
58294;SDS011;45705;55.592;37.460;2023-11-19T05:13:15;42.28;;;21.35;;
58294;SDS011;45705;55.592;37.460;2023-11-19T05:15:42;39.05;;;20.63;;
58294;SDS011;45705;55.592;37.460;2023-11-19T05:18:08;42.42;;;22.02;;
58294;SDS011;45705;55.592;37.460;2023-11-19T05:20:34;43.50;;;20.67;;
58294;SDS011;45705;55.592;37.460;2023-11-19T05:23:00;42.17;;;21.10;;
58294;SDS011;45705;55.592;37.460;2023-11-19T05:25:26;48.38;;;22.17;;
58294;SDS011;45705;55.592;37.460;2023-11-19T05:27:53;38.83;;;21.33;;
58294;SDS011;45705;55.592;37.460;2023-11-19T05:30:19;44.72;;;20.60;;
58294;SDS011;45705;55.592;37.460;2023-11-19T05:32:45;47.40;;;22.40;;
58294;SDS011;45705;55.592;37.460;2023-11-19T05:35:11;38.33;;;20.17;;
58294;SDS011;45705;55.592;37.460;2023-11-19T05:37:37;52.20;;;21.70;;
58294;SDS011;45705;55.592;37.460;2023-11-19T05:40:03;41.30;;;20.33;;
58294;SDS011;45705;55.592;37.460;2023-11-19T05:42:33;41.17;;;20.45;;
58294;SDS011;45705;55.592;37.460;2023-11-19T05:44:59;43.17;;;20.95;;
58294;SDS011;45705;55.592;37.460;2023-11-19T05:47:25;50.08;;;21.13;;
58294;SDS011;45705;55.592;37.460;2023-11-19T05:49:51;44.90;;;21.45;;
58294;SDS011;45705;55.592;37.460;2023-11-19T05:52:16;41.90;;;21.35;;
58294;SDS011;45705;55.592;37.460;2023-11-19T05:54:43;40.05;;;21.13;;
58294;SDS011;45705;55.592;37.460;2023-11-19T05:57:08;42.55;;;21.67;;
58294;SDS011;45705;55.592;37.460;2023-11-19T05:59:35;44.30;;;20.95;;
58294;SDS011;45705;55.592;37.460;2023-11-19T06:02:02;40.22;;;19.45;;
58294;SDS011;45705;55.592;37.460;2023-11-19T06:04:28;38.97;;;19.20;;
58294;SDS011;45705;55.592;37.460;2023-11-19T06:06:54;38.47;;;19.60;;
58294;SDS011;45705;55.592;37.460;2023-11-19T06:09:22;42.92;;;19.98;;
58294;SDS011;45705;55.592;37.460;2023-11-19T06:11:49;41.15;;;20.58;;
58294;SDS011;45705;55.592;37.460;2023-11-19T06:14:16;35.58;;;18.17;;
58294;SDS011;45705;55.592;37.460;2023-11-19T06:16:42;37.83;;;18.88;;
58294;SDS011;45705;55.592;37.460;2023-11-19T06:19:08;37.03;;;18.42;;
58294;SDS011;45705;55.592;37.460;2023-11-19T06:21:33;34.72;;;17.27;;
58294;SDS011;45705;55.592;37.460;2023-11-19T06:24:01;39.95;;;20.27;;
58294;SDS011;45705;55.592;37.460;2023-11-19T06:26:26;36.03;;;18.25;;
58294;SDS011;45705;55.592;37.460;2023-11-19T06:28:52;38.67;;;18.20;;
58294;SDS011;45705;55.592;37.460;2023-11-19T06:31:18;40.17;;;20.08;;
58294;SDS011;45705;55.592;37.460;2023-11-19T06:33:44;41.42;;;20.65;;
58294;SDS011;45705;55.592;37.460;2023-11-19T06:36:13;38.88;;;19.02;;
58294;SDS011;45705;55.592;37.460;2023-11-19T06:38:41;36.92;;;19.60;;
58294;SDS011;45705;55.592;37.460;2023-11-19T06:41:08;38.08;;;18.67;;
58294;SDS011;45705;55.592;37.460;2023-11-19T06:46:02;45.97;;;21.05;;
58294;SDS011;45705;55.592;37.460;2023-11-19T06:48:32;48.72;;;21.42;;
58294;SDS011;45705;55.592;37.460;2023-11-19T06:50:59;40.40;;;21.23;;
58294;SDS011;45705;55.592;37.460;2023-11-19T06:53:25;43.60;;;20.35;;
58294;SDS011;45705;55.592;37.460;2023-11-19T06:55:50;45.08;;;20.42;;
58294;SDS011;45705;55.592;37.460;2023-11-19T06:58:16;44.08;;;20.60;;
58294;SDS011;45705;55.592;37.460;2023-11-19T07:00:43;42.95;;;20.85;;
58294;SDS011;45705;55.592;37.460;2023-11-19T07:03:09;41.53;;;19.80;;
58294;SDS011;45705;55.592;37.460;2023-11-19T07:05:36;44.03;;;22.42;;
58294;SDS011;45705;55.592;37.460;2023-11-19T07:08:05;36.15;;;20.40;;
58294;SDS011;45705;55.592;37.460;2023-11-19T07:10:32;43.05;;;21.90;;
58294;SDS011;45705;55.592;37.460;2023-11-19T07:12:59;44.03;;;19.50;;
58294;SDS011;45705;55.592;37.460;2023-11-19T07:15:24;37.10;;;19.35;;
58294;SDS011;45705;55.592;37.460;2023-11-19T07:17:50;43.08;;;18.67;;
58294;SDS011;45705;55.592;37.460;2023-11-19T07:20:16;38.47;;;18.90;;
58294;SDS011;45705;55.592;37.460;2023-11-19T07:22:45;37.10;;;18.15;;
58294;SDS011;45705;55.592;37.460;2023-11-19T07:25:14;37.92;;;18.58;;
58294;SDS011;45705;55.592;37.460;2023-11-19T07:27:40;43.10;;;20.45;;
58294;SDS011;45705;55.592;37.460;2023-11-19T07:30:06;39.83;;;19.15;;
58294;SDS011;45705;55.592;37.460;2023-11-19T07:32:35;38.58;;;19.73;;
58294;SDS011;45705;55.592;37.460;2023-11-19T07:35:01;36.97;;;17.90;;
58294;SDS011;45705;55.592;37.460;2023-11-19T07:37:28;35.10;;;18.52;;
58294;SDS011;45705;55.592;37.460;2023-11-19T07:39:53;42.30;;;19.23;;
58294;SDS011;45705;55.592;37.460;2023-11-19T07:44:52;39.90;;;19.75;;
58294;SDS011;45705;55.592;37.460;2023-11-19T07:47:20;40.75;;;19.45;;
58294;SDS011;45705;55.592;37.460;2023-11-19T07:49:49;40.08;;;20.90;;
58294;SDS011;45705;55.592;37.460;2023-11-19T07:52:16;44.33;;;21.95;;
58294;SDS011;45705;55.592;37.460;2023-11-19T07:54:41;51.72;;;21.75;;
58294;SDS011;45705;55.592;37.460;2023-11-19T07:57:07;43.67;;;20.30;;
58294;SDS011;45705;55.592;37.460;2023-11-19T07:59:33;38.05;;;19.48;;
58294;SDS011;45705;55.592;37.460;2023-11-19T08:01:58;41.33;;;21.38;;
58294;SDS011;45705;55.592;37.460;2023-11-19T08:04:24;45.17;;;21.50;;
58294;SDS011;45705;55.592;37.460;2023-11-19T08:06:50;44.08;;;20.98;;
58294;SDS011;45705;55.592;37.460;2023-11-19T08:09:17;41.45;;;20.30;;
58294;SDS011;45705;55.592;37.460;2023-11-19T08:11:43;41.88;;;17.15;;
58294;SDS011;45705;55.592;37.460;2023-11-19T08:14:09;30.33;;;14.10;;
58294;SDS011;45705;55.592;37.460;2023-11-19T08:16:35;24.98;;;11.98;;
58294;SDS011;45705;55.592;37.460;2023-11-19T08:19:02;21.48;;;9.75;;
58294;SDS011;45705;55.592;37.460;2023-11-19T08:21:28;31.30;;;11.10;;
58294;SDS011;45705;55.592;37.460;2023-11-19T08:23:54;21.83;;;10.80;;
58294;SDS011;45705;55.592;37.460;2023-11-19T08:26:21;18.25;;;10.45;;
58294;SDS011;45705;55.592;37.460;2023-11-19T08:28:47;19.45;;;9.82;;
58294;SDS011;45705;55.592;37.460;2023-11-19T08:31:13;22.42;;;10.25;;
58294;SDS011;45705;55.592;37.460;2023-11-19T08:33:39;21.42;;;8.90;;
58294;SDS011;45705;55.592;37.460;2023-11-19T08:36:05;17.45;;;8.95;;
58294;SDS011;45705;55.592;37.460;2023-11-19T08:38:31;15.15;;;7.85;;
58294;SDS011;45705;55.592;37.460;2023-11-19T08:40:57;18.25;;;8.20;;
58294;SDS011;45705;55.592;37.460;2023-11-19T08:43:25;20.48;;;9.02;;
58294;SDS011;45705;55.592;37.460;2023-11-19T08:45:51;18.88;;;8.93;;
58294;SDS011;45705;55.592;37.460;2023-11-19T08:48:17;20.90;;;9.90;;
58294;SDS011;45705;55.592;37.460;2023-11-19T08:50:43;16.80;;;9.57;;
58294;SDS011;45705;55.592;37.460;2023-11-19T08:53:09;17.25;;;10.13;;
58294;SDS011;45705;55.592;37.460;2023-11-19T08:55:34;15.73;;;8.95;;
58294;SDS011;45705;55.592;37.460;2023-11-19T08:58:00;22.58;;;9.35;;
58294;SDS011;45705;55.592;37.460;2023-11-19T09:00:27;17.83;;;8.65;;
58294;SDS011;45705;55.592;37.460;2023-11-19T09:02:53;14.27;;;7.97;;
58294;SDS011;45705;55.592;37.460;2023-11-19T09:05:19;15.38;;;8.10;;
58294;SDS011;45705;55.592;37.460;2023-11-19T09:07:45;18.20;;;8.75;;
58294;SDS011;45705;55.592;37.460;2023-11-19T09:10:10;16.52;;;9.15;;
58294;SDS011;45705;55.592;37.460;2023-11-19T09:12:37;19.42;;;8.63;;
58294;SDS011;45705;55.592;37.460;2023-11-19T09:15:03;17.85;;;9.10;;
58294;SDS011;45705;55.592;37.460;2023-11-19T09:17:30;13.98;;;8.30;;
58294;SDS011;45705;55.592;37.460;2023-11-19T09:19:56;18.55;;;8.18;;
58294;SDS011;45705;55.592;37.460;2023-11-19T09:22:22;20.02;;;9.38;;
58294;SDS011;45705;55.592;37.460;2023-11-19T09:24:48;15.07;;;8.52;;
58294;SDS011;45705;55.592;37.460;2023-11-19T09:27:14;18.02;;;8.13;;
58294;SDS011;45705;55.592;37.460;2023-11-19T09:29:39;14.07;;;7.97;;
58294;SDS011;45705;55.592;37.460;2023-11-19T09:32:05;15.60;;;7.82;;
58294;SDS011;45705;55.592;37.460;2023-11-19T09:34:32;13.00;;;7.30;;
58294;SDS011;45705;55.592;37.460;2023-11-19T09:36:58;16.15;;;7.95;;
58294;SDS011;45705;55.592;37.460;2023-11-19T09:39:24;16.50;;;7.60;;
58294;SDS011;45705;55.592;37.460;2023-11-19T09:41:51;18.75;;;7.75;;
58294;SDS011;45705;55.592;37.460;2023-11-19T09:44:17;17.88;;;8.13;;
58294;SDS011;45705;55.592;37.460;2023-11-19T09:46:44;15.10;;;7.60;;
58294;SDS011;45705;55.592;37.460;2023-11-19T09:49:11;16.67;;;7.88;;
58294;SDS011;45705;55.592;37.460;2023-11-19T09:51:38;15.88;;;7.60;;
58294;SDS011;45705;55.592;37.460;2023-11-19T09:54:04;18.10;;;7.75;;
58294;SDS011;45705;55.592;37.460;2023-11-19T09:56:30;45.95;;;8.98;;
58294;SDS011;45705;55.592;37.460;2023-11-19T09:58:56;19.13;;;8.65;;
58294;SDS011;45705;55.592;37.460;2023-11-19T10:01:22;20.60;;;8.80;;
58294;SDS011;45705;55.592;37.460;2023-11-19T10:03:48;14.98;;;7.45;;
58294;SDS011;45705;55.592;37.460;2023-11-19T10:06:15;22.80;;;8.57;;
58294;SDS011;45705;55.592;37.460;2023-11-19T10:08:41;30.40;;;7.03;;
58294;SDS011;45705;55.592;37.460;2023-11-19T10:11:08;14.75;;;7.63;;
58294;SDS011;45705;55.592;37.460;2023-11-19T10:13:37;15.07;;;7.05;;
58294;SDS011;45705;55.592;37.460;2023-11-19T10:16:10;13.13;;;7.15;;
58294;SDS011;45705;55.592;37.460;2023-11-19T10:18:48;15.38;;;7.10;;
58294;SDS011;45705;55.592;37.460;2023-11-19T10:23:54;12.77;;;6.53;;
58294;SDS011;45705;55.592;37.460;2023-11-19T10:26:26;15.13;;;6.70;;
58294;SDS011;45705;55.592;37.460;2023-11-19T10:28:52;15.80;;;7.47;;
58294;SDS011;45705;55.592;37.460;2023-11-19T10:31:19;18.33;;;7.80;;
58294;SDS011;45705;55.592;37.460;2023-11-19T10:33:52;18.50;;;7.18;;
58294;SDS011;45705;55.592;37.460;2023-11-19T10:36:18;13.75;;;7.25;;
58294;SDS011;45705;55.592;37.460;2023-11-19T10:38:51;24.13;;;7.95;;
58294;SDS011;45705;55.592;37.460;2023-11-19T10:41:29;13.75;;;5.82;;
58294;SDS011;45705;55.592;37.460;2023-11-19T10:43:58;11.63;;;6.38;;
58294;SDS011;45705;55.592;37.460;2023-11-19T10:46:37;13.73;;;6.00;;
58294;SDS011;45705;55.592;37.460;2023-11-19T10:49:05;18.90;;;6.18;;
58294;SDS011;45705;55.592;37.460;2023-11-19T10:51:32;14.85;;;5.82;;
58294;SDS011;45705;55.592;37.460;2023-11-19T10:54:04;12.98;;;6.50;;
58294;SDS011;45705;55.592;37.460;2023-11-19T10:56:31;11.05;;;5.55;;
58294;SDS011;45705;55.592;37.460;2023-11-19T10:58:58;14.32;;;6.40;;
58294;SDS011;45705;55.592;37.460;2023-11-19T11:01:45;11.55;;;6.18;;
58294;SDS011;45705;55.592;37.460;2023-11-19T11:04:14;9.40;;;6.20;;
58294;SDS011;45705;55.592;37.460;2023-11-19T11:06:41;10.52;;;5.97;;
58294;SDS011;45705;55.592;37.460;2023-11-19T11:09:07;15.80;;;6.28;;
58294;SDS011;45705;55.592;37.460;2023-11-19T11:11:38;12.02;;;6.32;;
58294;SDS011;45705;55.592;37.460;2023-11-19T11:14:05;14.05;;;6.50;;
58294;SDS011;45705;55.592;37.460;2023-11-19T11:16:33;13.38;;;6.60;;
58294;SDS011;45705;55.592;37.460;2023-11-19T11:19:03;17.08;;;6.38;;
58294;SDS011;45705;55.592;37.460;2023-11-19T11:21:30;13.50;;;6.32;;
58294;SDS011;45705;55.592;37.460;2023-11-19T11:29:58;11.50;;;6.88;;
58294;SDS011;45705;55.592;37.460;2023-11-19T11:39:57;14.73;;;7.22;;
58294;SDS011;45705;55.592;37.460;2023-11-19T11:45:06;20.35;;;9.43;;
58294;SDS011;45705;55.592;37.460;2023-11-19T11:50:12;20.15;;;9.25;;
58294;SDS011;45705;55.592;37.460;2023-11-19T11:55:34;29.20;;;13.10;;
58294;SDS011;45705;55.592;37.460;2023-11-19T11:58:07;23.30;;;11.85;;
58294;SDS011;45705;55.592;37.460;2023-11-19T12:00:38;28.80;;;15.85;;
58294;SDS011;45705;55.592;37.460;2023-11-19T12:03:06;22.80;;;13.18;;
58294;SDS011;45705;55.592;37.460;2023-11-19T12:05:33;25.83;;;14.75;;
58294;SDS011;45705;55.592;37.460;2023-11-19T12:08:04;28.95;;;16.02;;
58294;SDS011;45705;55.592;37.460;2023-11-19T12:10:53;25.87;;;15.37;;
58294;SDS011;45705;55.592;37.460;2023-11-19T12:13:20;26.15;;;14.95;;
58294;SDS011;45705;55.592;37.460;2023-11-19T12:18:28;30.65;;;15.32;;
58294;SDS011;45705;55.592;37.460;2023-11-19T12:20:57;33.47;;;18.52;;
58294;SDS011;45705;55.592;37.460;2023-11-19T12:23:28;25.67;;;14.10;;
58294;SDS011;45705;55.592;37.460;2023-11-19T12:25:55;25.50;;;14.68;;
58294;SDS011;45705;55.592;37.460;2023-11-19T12:28:22;30.17;;;15.15;;
58294;SDS011;45705;55.592;37.460;2023-11-19T12:30:49;29.08;;;15.80;;
58294;SDS011;45705;55.592;37.460;2023-11-19T12:33:16;30.77;;;15.90;;
58294;SDS011;45705;55.592;37.460;2023-11-19T12:35:46;32.90;;;15.95;;
58294;SDS011;45705;55.592;37.460;2023-11-19T12:38:23;33.17;;;19.17;;
58294;SDS011;45705;55.592;37.460;2023-11-19T12:41:05;34.60;;;17.02;;
58294;SDS011;45705;55.592;37.460;2023-11-19T12:43:32;30.80;;;15.45;;
58294;SDS011;45705;55.592;37.460;2023-11-19T12:46:02;28.17;;;14.95;;
58294;SDS011;45705;55.592;37.460;2023-11-19T12:48:28;29.15;;;16.02;;
58294;SDS011;45705;55.592;37.460;2023-11-19T12:50:55;31.50;;;15.93;;
58294;SDS011;45705;55.592;37.460;2023-11-19T12:53:23;35.97;;;19.10;;
58294;SDS011;45705;55.592;37.460;2023-11-19T12:55:50;33.30;;;17.92;;
58294;SDS011;45705;55.592;37.460;2023-11-19T12:58:30;36.55;;;16.42;;
58294;SDS011;45705;55.592;37.460;2023-11-19T13:00:59;34.00;;;18.45;;
58294;SDS011;45705;55.592;37.460;2023-11-19T13:03:29;27.08;;;16.55;;
58294;SDS011;45705;55.592;37.460;2023-11-19T13:06:09;32.50;;;16.23;;
58294;SDS011;45705;55.592;37.460;2023-11-19T13:08:43;31.63;;;16.55;;
58294;SDS011;45705;55.592;37.460;2023-11-19T13:11:11;28.00;;;16.40;;
58294;SDS011;45705;55.592;37.460;2023-11-19T13:16:29;32.72;;;17.65;;
58294;SDS011;45705;55.592;37.460;2023-11-19T13:18:55;33.10;;;18.25;;
58294;SDS011;45705;55.592;37.460;2023-11-19T13:21:22;33.10;;;17.65;;
58294;SDS011;45705;55.592;37.460;2023-11-19T13:23:48;35.05;;;16.85;;
58294;SDS011;45705;55.592;37.460;2023-11-19T13:26:14;36.70;;;19.10;;
58294;SDS011;45705;55.592;37.460;2023-11-19T13:28:40;29.58;;;16.10;;
58294;SDS011;45705;55.592;37.460;2023-11-19T13:31:06;35.85;;;18.33;;
58294;SDS011;45705;55.592;37.460;2023-11-19T13:33:31;31.75;;;17.70;;
58294;SDS011;45705;55.592;37.460;2023-11-19T13:35:57;29.75;;;16.73;;
58294;SDS011;45705;55.592;37.460;2023-11-19T13:38:23;39.10;;;21.73;;
58294;SDS011;45705;55.592;37.460;2023-11-19T13:40:49;38.88;;;19.25;;
58294;SDS011;45705;55.592;37.460;2023-11-19T13:43:16;31.95;;;17.00;;
58294;SDS011;45705;55.592;37.460;2023-11-19T13:45:42;31.95;;;16.60;;
58294;SDS011;45705;55.592;37.460;2023-11-19T13:48:08;33.75;;;16.70;;
58294;SDS011;45705;55.592;37.460;2023-11-19T13:50:34;30.35;;;16.30;;
58294;SDS011;45705;55.592;37.460;2023-11-19T13:53:00;33.20;;;17.27;;
58294;SDS011;45705;55.592;37.460;2023-11-19T13:55:26;31.38;;;16.92;;
58294;SDS011;45705;55.592;37.460;2023-11-19T13:57:52;34.47;;;18.70;;
58294;SDS011;45705;55.592;37.460;2023-11-19T14:00:18;36.53;;;17.77;;
58294;SDS011;45705;55.592;37.460;2023-11-19T14:02:49;40.72;;;17.77;;
58294;SDS011;45705;55.592;37.460;2023-11-19T14:05:15;34.55;;;17.40;;
58294;SDS011;45705;55.592;37.460;2023-11-19T14:10:13;36.22;;;18.20;;
58294;SDS011;45705;55.592;37.460;2023-11-19T14:12:40;34.47;;;17.80;;
58294;SDS011;45705;55.592;37.460;2023-11-19T14:15:07;32.92;;;18.02;;
58294;SDS011;45705;55.592;37.460;2023-11-19T14:17:42;36.05;;;18.23;;
58294;SDS011;45705;55.592;37.460;2023-11-19T14:20:09;33.70;;;18.08;;
58294;SDS011;45705;55.592;37.460;2023-11-19T14:22:43;33.25;;;17.85;;
58294;SDS011;45705;55.592;37.460;2023-11-19T14:25:09;40.33;;;19.20;;
58294;SDS011;45705;55.592;37.460;2023-11-19T14:27:40;34.83;;;17.70;;
58294;SDS011;45705;55.592;37.460;2023-11-19T14:30:07;32.88;;;18.02;;
58294;SDS011;45705;55.592;37.460;2023-11-19T14:32:37;38.13;;;20.30;;
58294;SDS011;45705;55.592;37.460;2023-11-19T14:35:04;48.08;;;22.63;;
58294;SDS011;45705;55.592;37.460;2023-11-19T14:37:30;40.67;;;22.77;;
58294;SDS011;45705;55.592;37.460;2023-11-19T14:39:57;40.08;;;21.00;;
58294;SDS011;45705;55.592;37.460;2023-11-19T14:42:24;39.30;;;20.38;;
58294;SDS011;45705;55.592;37.460;2023-11-19T14:44:50;41.70;;;19.98;;
58294;SDS011;45705;55.592;37.460;2023-11-19T14:47:20;34.92;;;18.70;;
58294;SDS011;45705;55.592;37.460;2023-11-19T14:49:47;31.70;;;17.25;;
58294;SDS011;45705;55.592;37.460;2023-11-19T14:52:13;36.28;;;19.92;;